Tarawa Tr, North Carolina
Current Conditions -  °F | °C
As of 5:56 PM on Wednesday 22 Oct 2014 (Local Time) from KNCA Reporting Station
Broken Clouds Broken Clouds  
Wind Chill: 63°   Ceiling: 7000
Heat Index: 63°   Visibility: 10mi
Dew Point: 47°   Wind: 7mph
Humidity: 56%   Direction: 340°NNW
Pressure: 29.93"   Gusts: NA
Location:  34.7353°N, 77.3964°W
Report Text: KNCA 222156Z 34006KT 10SM BKN070 17/08 A2993 RMK AO2 SLP138 T01720083
Loading
Personal Weather Stations






























Interactive Weather Map
Tropical Storm Tracking
New forecast layout! Learn more

10-Day Weather Forecast

Advertisements
Track Severe Weather on mobile